Time;durP1;ratioP1;P1;durP2;ratioP2;P2;SDS_P1;SDS_P2;PMS_P1;PMS_P2;Temp;Humidity;BMP_temperature;BMP_pressure;BME280_temperature;BME280_humidity;BME280_pressure;Samples;Min_cycle;Max_cycle;Signal;HPM_P1;HPM_P2
2021/04/15 00:02:42;;;;;;;9.77;6.27;;;;;;;1.03;68.25;101787.56;10431294;28;20243;-71
2021/04/15 00:07:45;;;;;;;10.43;7.30;;;;;;;1.15;68.41;101787.34;10433202;28;20229;-71
2021/04/15 00:12:47;;;;;;;11.73;6.87;;;;;;;1.10;68.16;101788.31;10429829;28;20371;-72
2021/04/15 00:17:49;;;;;;;12.33;6.63;;;;;;;0.90;68.33;101784.28;10431389;28;20233;-71
2021/04/15 00:22:52;;;;;;;13.57;7.30;;;;;;;1.03;68.49;101790.22;10429837;28;20224;-73
2021/04/15 00:27:55;;;;;;;13.57;8.00;;;;;;;1.03;68.25;101783.16;10431723;28;20233;-72
2021/04/15 00:32:57;;;;;;;10.37;7.33;;;;;;;1.00;68.07;101780.56;10432908;28;20237;-71
2021/04/15 00:37:59;;;;;;;10.70;7.50;;;;;;;0.89;68.34;101781.66;10430782;28;20236;-71
2021/04/15 00:43:03;;;;;;;10.67;8.00;;;;;;;0.70;69.30;101789.06;10432851;28;20240;-71
2021/04/15 00:48:09;;;;;;;9.73;7.43;;;;;;;0.51;69.77;101778.78;10432890;28;20414;-71
2021/04/15 00:53:17;;;;;;;12.10;7.60;;;;;;;0.30;70.42;101774.75;10432825;28;20236;-71
2021/04/15 00:58:21;;;;;;;14.47;7.23;;;;;;;0.12;71.22;101785.59;10431183;28;20237;-71
2021/04/15 01:03:23;;;;;;;19.20;8.50;;;;;;;0.05;71.59;101781.31;10431043;28;20240;-73
2021/04/15 01:08:26;;;;;;;16.77;9.03;;;;;;;0.01;71.59;101779.63;10428502;28;21205;-71
2021/04/15 01:13:52;;;;;;;13.33;8.10;;;;;;;0.09;71.66;101772.44;10432829;28;20236;-71
2021/04/15 01:19:01;;;;;;;13.83;9.00;;;;;;;0.07;72.01;101776.88;10437837;28;20232;-71
2021/04/15 01:24:07;;;;;;;15.17;9.60;;;;;;;0.03;71.99;101773.41;10434989;28;20229;-71
2021/04/15 01:29:18;;;;;;;13.23;9.00;;;;;;;0.12;72.31;101772.41;10435612;28;20239;-71
2021/04/15 01:34:33;;;;;;;13.97;9.40;;;;;;;0.32;72.50;101769.44;10437746;28;20240;-71
2021/04/15 01:39:47;;;;;;;15.33;9.43;;;;;;;0.37;71.85;101771.09;10437248;28;20244;-72
2021/04/15 01:44:55;;;;;;;11.83;7.20;;;;;;;0.25;72.19;101768.66;10435463;28;20724;-71
2021/04/15 01:50:03;;;;;;;13.10;8.20;;;;;;;-0.06;72.70;101773.53;10437336;28;20252;-72
2021/04/15 01:55:13;;;;;;;12.83;8.17;;;;;;;-0.23;72.83;101773.78;10436349;28;20776;-72
2021/04/15 02:00:22;;;;;;;14.93;8.53;;;;;;;-0.33;73.23;101766.88;10433516;28;20249;-71
2021/04/15 02:05:27;;;;;;;18.00;9.40;;;;;;;-0.40;73.25;101771.38;10435728;28;20236;-72
2021/04/15 02:10:31;;;;;;;16.03;8.30;;;;;;;-0.41;73.72;101779.31;10436522;28;20465;-71
2021/04/15 02:15:44;;;;;;;14.97;9.60;;;;;;;-0.33;73.68;101780.97;10434483;28;20240;-71
2021/04/15 02:20:49;;;;;;;18.33;11.33;;;;;;;-0.20;73.17;101780.78;10434314;28;20370;-71
2021/04/15 02:25:56;;;;;;;12.43;9.57;;;;;;;-0.25;73.19;101777.34;10435492;28;20233;-71
2021/04/15 02:31:07;;;;;;;16.87;9.93;;;;;;;-0.30;73.28;101774.78;10435070;28;20268;-71
2021/04/15 02:36:10;;;;;;;16.23;9.63;;;;;;;-0.47;72.96;101774.09;10433252;28;20737;-71
2021/04/15 02:41:17;;;;;;;17.87;9.43;;;;;;;-0.67;73.16;101772.59;10434351;28;20235;-71
2021/04/15 02:46:26;;;;;;;13.37;8.80;;;;;;;-0.83;73.71;101771.03;10434734;28;20315;-71
2021/04/15 02:51:33;;;;;;;15.00;8.93;;;;;;;-0.82;73.63;101772.78;10434235;28;20240;-72
2021/04/15 02:56:42;;;;;;;16.40;9.53;;;;;;;-0.68;73.71;101768.22;10435424;28;20237;-71
2021/04/15 03:01:51;;;;;;;15.50;9.87;;;;;;;-0.73;73.53;101770.03;10432333;28;20667;-72
2021/04/15 03:06:57;;;;;;;18.33;9.63;;;;;;;-0.65;73.44;101768.19;10432020;28;20714;-71
2021/04/15 03:12:02;;;;;;;18.33;11.43;;;;;;;-0.58;73.69;101774.25;10433869;28;20233;-73
2021/04/15 03:17:06;;;;;;;18.57;11.00;;;;;;;-0.49;73.20;101779.44;10432682;28;20249;-72
2021/04/15 03:22:13;;;;;;;18.30;10.60;;;;;;;-0.56;72.70;101770.69;10431077;28;20240;-73
2021/04/15 03:27:20;;;;;;;14.77;10.77;;;;;;;-0.51;72.72;101781.19;10431820;28;20248;-72
2021/04/15 03:32:27;;;;;;;21.30;11.27;;;;;;;-0.55;72.62;101779.47;10432146;28;21413;-72
2021/04/15 03:37:35;;;;;;;17.97;11.27;;;;;;;-0.47;71.93;101774.97;10434114;28;20330;-73
2021/04/15 03:42:42;;;;;;;16.27;10.60;;;;;;;-0.50;71.94;101782.94;10433935;28;20225;-72
2021/04/15 03:47:50;;;;;;;15.23;10.37;;;;;;;-0.54;71.80;101782.13;10432883;28;20229;-72
2021/04/15 03:52:57;;;;;;;17.90;10.70;;;;;;;-0.68;71.65;101783.19;10432437;28;20229;-72
2021/04/15 03:58:05;;;;;;;15.13;9.10;;;;;;;-0.75;71.91;101780.59;10439106;28;20240;-72
2021/04/15 04:03:11;;;;;;;14.13;9.57;;;;;;;-0.68;72.30;101788.47;10431390;28;21384;-72
2021/04/15 04:08:19;;;;;;;15.77;10.27;;;;;;;-0.69;71.92;101792.84;10434076;28;20960;-72
2021/04/15 04:13:26;;;;;;;18.13;10.77;;;;;;;-0.79;71.43;101805.28;10433175;28;20264;-72
2021/04/15 04:18:39;;;;;;;16.67;10.10;;;;;;;-0.87;71.53;101795.72;10450720;28;20237;-70
2021/04/15 04:23:47;;;;;;;17.07;11.23;;;;;;;-0.84;71.28;101801.81;10433450;28;20253;-71
2021/04/15 04:29:05;;;;;;;35.40;18.40;;;;;;;-0.72;71.26;101806.09;10432474;28;20588;-71
2021/04/15 04:34:09;;;;;;;24.17;13.93;;;;;;;-0.65;71.46;101815.69;10436520;28;20240;-70
2021/04/15 04:39:14;;;;;;;21.50;11.80;;;;;;;-0.64;72.31;101821.84;10431101;28;20240;-71
2021/04/15 04:44:23;;;;;;;19.33;10.73;;;;;;;-0.66;72.30;101815.69;10432084;28;20232;-71
2021/04/15 04:49:31;;;;;;;18.60;10.23;;;;;;;-0.83;72.73;101821.16;10432538;28;20233;-72
2021/04/15 04:54:37;;;;;;;18.57;9.53;;;;;;;-0.98;72.94;101824.84;10432558;28;20233;-72
2021/04/15 04:59:43;;;;;;;18.03;10.40;;;;;;;-0.85;73.23;101830.84;10434732;28;20925;-72
2021/04/15 05:04:48;;;;;;;20.13;11.13;;;;;;;-0.86;73.70;101835.25;10432876;28;20225;-71
2021/04/15 05:09:52;;;;;;;21.13;12.13;;;;;;;-0.65;73.83;101835.94;10431209;28;20240;-71
2021/04/15 05:14:56;;;;;;;25.03;12.43;;;;;;;-0.40;73.53;101833.88;10430650;28;20245;-72
2021/04/15 05:20:01;;;;;;;21.93;13.67;;;;;;;-0.04;73.11;101843.09;10433923;28;20237;-72
2021/04/15 05:25:08;;;;;;;19.77;12.33;;;;;;;0.08;72.31;101844.66;10432735;28;20615;-71
2021/04/15 05:30:19;;;;;;;20.37;12.33;;;;;;;0.04;72.12;101849.13;10430604;28;20240;-72
2021/04/15 05:35:30;;;;;;;21.30;13.30;;;;;;;0.15;72.32;101849.00;10432505;28;20237;-71
2021/04/15 05:40:32;;;;;;;20.70;13.20;;;;;;;0.32;71.74;101856.66;10430691;28;20702;-72
2021/04/15 05:45:37;;;;;;;22.40;11.70;;;;;;;0.33;71.49;101859.31;10430795;28;20236;-71
2021/04/15 05:50:46;;;;;;;22.37;12.20;;;;;;;-0.06;71.82;101853.66;10431541;28;20235;-71
2021/04/15 05:55:52;;;;;;;15.87;11.80;;;;;;;-0.24;72.04;101855.69;10431399;28;20236;-72
2021/04/15 06:01:00;;;;;;;20.37;11.33;;;;;;;-0.10;72.23;101859.03;10438081;28;20243;-71
2021/04/15 06:06:06;;;;;;;19.80;11.80;;;;;;;-0.11;71.88;101858.16;10453881;28;20237;-72
2021/04/15 06:11:19;;;;;;;17.30;11.97;;;;;;;-0.07;71.96;101867.78;10438992;28;20243;-72
2021/04/15 06:16:26;;;;;;;22.93;12.43;;;;;;;0.03;71.85;101873.81;10439681;28;20244;-72
2021/04/15 06:21:34;;;;;;;21.33;12.40;;;;;;;0.43;71.64;101881.16;10438469;28;20899;-71
2021/04/15 06:26:43;;;;;;;20.17;12.67;;;;;;;0.61;71.31;101872.97;10437030;28;20246;-71
2021/04/15 06:31:51;;;;;;;20.83;12.50;;;;;;;0.64;71.28;101873.81;10438763;28;20228;-71
2021/04/15 06:37:02;;;;;;;20.77;12.57;;;;;;;0.87;71.61;101868.13;10452849;28;20580;-72
2021/04/15 06:42:43;;;;;;;23.47;13.73;;;;;;;1.25;70.74;101875.41;10437633;28;20240;-72
2021/04/15 06:48:06;;;;;;;24.77;13.67;;;;;;;1.51;70.40;101874.91;10435303;28;20378;-72
2021/04/15 06:53:30;;;;;;;22.70;13.13;;;;;;;1.69;69.86;101869.22;10436444;28;20236;-73
2021/04/15 06:58:45;;;;;;;5.37;3.70;;;;;;;2.48;69.88;101879.00;10436465;28;20614;-72
2021/04/15 07:04:08;;;;;;;51.27;25.20;;;;;;;3.56;68.19;101871.81;10435000;28;20233;-72
2021/04/15 07:09:35;;;;;;;26.10;13.90;;;;;;;4.44;65.72;101867.41;10435167;28;20240;-70
2021/04/15 07:14:58;;;;;;;14.63;8.40;;;;;;;4.89;63.59;101873.97;10430736;28;20666;-71
2021/04/15 07:20:34;;;;;;;14.57;7.70;;;;;;;5.42;61.98;101879.25;10434914;28;20240;-70
2021/04/15 07:25:57;;;;;;;14.63;8.75;;;;;;;5.74;60.70;101878.09;10434251;28;20240;-70
2021/04/15 07:31:36;;;;;;;13.90;7.20;;;;;;;5.97;59.81;101887.88;10435108;28;20232;-72
2021/04/15 07:37:01;;;;;;;17.25;10.02;;;;;;;5.97;59.67;101892.34;10423041;28;20241;-70
2021/04/15 07:42:22;;;;;;;14.15;8.63;;;;;;;6.21;59.20;101898.56;10421810;28;20229;-70
2021/04/15 07:47:49;;;;;;;15.43;8.23;;;;;;;6.51;58.55;101900.00;10431622;28;20233;-71
2021/04/15 07:53:19;;;;;;;18.08;8.30;;;;;;;6.80;58.42;101898.84;10412887;28;20218;-71
2021/04/15 07:58:42;;;;;;;17.33;7.85;;;;;;;7.13;57.16;101892.16;10397086;28;20245;-70
2021/04/15 08:04:13;;;;;;;13.55;7.65;;;;;;;7.73;56.28;101902.00;10398825;28;20234;-70
2021/04/15 08:09:44;;;;;;;14.90;7.15;;;;;;;8.10;53.54;101900.28;10354983;28;20758;-70
2021/04/15 08:15:27;;;;;;;15.10;7.05;;;;;;;8.24;54.05;101891.63;10410870;28;20244;-70
2021/04/15 08:20:57;;;;;;;17.17;8.10;;;;;;;8.69;52.51;101903.75;10381367;28;20620;-71
2021/04/15 08:26:34;;;;;;;17.05;8.40;;;;;;;8.81;51.72;101902.28;10401101;28;20717;-71
2021/04/15 08:31:50;;;;;;;12.70;6.65;;;;;;;8.98;50.38;101904.13;10378964;28;20232;-71
2021/04/15 08:37:17;;;;;;;13.30;7.95;;;;;;;9.46;49.52;101898.06;10388641;28;20336;-71
2021/04/15 08:42:34;;;;;;;14.27;7.63;;;;;;;9.42;49.48;101898.31;10393399;28;20249;-71
2021/04/15 08:47:52;;;;;;;13.68;7.88;;;;;;;10.07;48.96;101899.31;10388763;28;20299;-70
2021/04/15 08:53:02;;;;;;;12.10;6.90;;;;;;;10.34;46.97;101902.28;10392008;28;20606;-72
2021/04/15 08:58:37;;;;;;;10.05;5.65;;;;;;;10.71;45.08;101905.56;10388391;28;20246;-69
2021/04/15 09:03:47;;;;;;;13.30;6.15;;;;;;;11.45;43.40;101898.53;10429942;28;20754;-69
2021/04/15 09:09:06;;;;;;;10.23;7.10;;;;;;;11.17;42.73;101896.66;10403670;28;20761;-70
2021/04/15 09:14:23;;;;;;;11.73;5.50;;;;;;;11.71;41.40;101889.75;10391325;28;20236;-70
2021/04/15 09:19:41;;;;;;;7.57;4.60;;;;;;;11.99;38.72;101893.41;10423116;28;20713;-70
2021/04/15 09:24:50;;;;;;;10.10;5.07;;;;;;;12.38;38.07;101889.13;10419072;28;20233;-70
2021/04/15 09:30:16;;;;;;;8.02;5.43;;;;;;;12.76;38.35;101893.84;10401134;28;20242;-70
2021/04/15 09:35:46;;;;;;;11.77;4.72;;;;;;;12.81;36.64;101879.09;10401008;28;20243;-70
2021/04/15 09:41:05;;;;;;;5.93;4.32;;;;;;;13.21;36.33;101881.75;10415685;28;20726;-71
2021/04/15 09:46:15;;;;;;;7.45;4.47;;;;;;;12.98;36.02;101883.34;10411545;28;20659;-71
2021/04/15 09:51:54;;;;;;;10.52;5.38;;;;;;;13.59;35.36;101874.72;10415762;28;21617;-71
2021/04/15 09:57:05;;;;;;;10.20;5.03;;;;;;;13.00;35.26;101878.72;10364802;28;20710;-71
2021/04/15 10:02:16;;;;;;;7.80;3.97;;;;;;;11.21;35.88;101865.91;10328465;28;20611;-72
2021/04/15 10:07:23;;;;;;;7.03;3.88;;;;;;;11.90;36.07;101867.91;10324300;28;20233;-71
2021/04/15 10:12:37;;;;;;;7.07;4.00;;;;;;;12.30;34.82;101870.78;10319344;28;20239;-70
2021/04/15 10:17:50;;;;;;;8.18;4.05;;;;;;;13.23;33.99;101870.88;10294056;28;20240;-70
2021/04/15 10:23:06;;;;;;;6.72;4.03;;;;;;;14.10;30.96;101862.03;10300769;28;20323;-70
2021/04/15 10:28:28;;;;;;;7.75;3.65;;;;;;;14.92;30.49;101854.16;10317298;28;20821;-72
2021/04/15 10:34:03;;;;;;;5.05;3.70;;;;;;;14.10;30.72;101853.06;10318179;28;20235;-71
2021/04/15 10:39:30;;;;;;;7.03;4.13;;;;;;;13.22;32.41;101848.44;10316574;28;21529;-70
2021/04/15 10:45:00;;;;;;;5.47;3.47;;;;;;;13.12;32.21;101851.88;10317884;28;20248;-70
2021/04/15 10:50:15;;;;;;;4.80;3.05;;;;;;;14.53;30.23;101845.34;10294982;28;20229;-70
2021/04/15 10:55:21;;;;;;;5.38;2.88;;;;;;;15.04;28.92;101836.97;10323997;28;20320;-71
2021/04/15 11:00:30;;;;;;;4.88;3.75;;;;;;;13.66;30.17;101835.53;10307611;28;20331;-70
2021/04/15 11:05:40;;;;;;;5.28;3.08;;;;;;;12.79;31.18;101847.81;10293495;28;20340;-71
2021/04/15 11:10:45;;;;;;;4.57;3.22;;;;;;;13.04;31.34;101831.66;10292923;28;20710;-71
2021/04/15 11:15:55;;;;;;;5.53;3.13;;;;;;;13.08;31.35;101839.53;10305586;28;20348;-70
2021/04/15 11:21:14;;;;;;;5.45;3.67;;;;;;;12.32;31.91;101833.81;10318853;28;20232;-71
2021/04/15 11:26:21;;;;;;;4.43;3.15;;;;;;;11.82;32.22;101823.56;10283514;28;20241;-69
2021/04/15 11:31:41;;;;;;;7.25;3.15;;;;;;;13.54;31.54;101822.88;10300344;28;20336;-69
2021/04/15 11:37:00;;;;;;;3.47;1.70;;;;;;;15.31;25.87;101816.88;10300410;28;20232;-70
2021/04/15 11:42:06;;;;;;;3.47;2.63;;;;;;;14.91;28.02;101814.53;10324636;28;20614;-70
2021/04/15 11:47:15;;;;;;;3.85;2.72;;;;;;;16.50;26.00;101813.63;10320132;28;20241;-71
2021/04/15 11:52:31;;;;;;;6.53;3.17;;;;;;;15.80;27.70;101804.00;10320358;28;20603;-71
2021/04/15 11:57:36;;;;;;;4.28;2.97;;;;;;;16.34;26.78;101805.91;10315825;28;20245;-70
2021/04/15 12:02:42;;;;;;;3.92;2.70;;;;;;;18.02;25.20;101812.19;10306162;28;20235;-69
2021/04/15 12:07:51;;;;;;;6.13;3.05;;;;;;;19.63;22.81;101790.78;10313228;28;20232;-71
2021/04/15 12:12:59;;;;;;;4.93;2.72;;;;;;;18.98;22.90;101796.13;10315502;28;20714;-71
2021/04/15 12:18:09;;;;;;;3.05;2.22;;;;;;;16.97;25.05;101803.28;10317173;28;20237;-71
2021/04/15 12:23:18;;;;;;;5.85;2.72;;;;;;;17.14;24.45;101794.59;10316985;28;21524;-71
2021/04/15 12:28:46;;;;;;;4.28;2.45;;;;;;;18.00;23.73;101789.72;10310314;28;21525;-71
2021/04/15 12:34:07;;;;;;;3.40;2.63;;;;;;;19.88;22.27;101784.66;10275193;28;20233;-72
2021/04/15 12:39:14;;;;;;;2.88;2.25;;;;;;;20.70;21.44;101777.31;10273083;28;20228;-72
2021/04/15 12:44:22;;;;;;;3.47;2.00;;;;;;;17.73;22.54;101781.31;10277935;28;20272;-71
2021/04/15 12:49:28;;;;;;;2.33;1.40;;;;;;;17.67;22.82;101774.56;10271948;28;20240;-71
2021/04/15 12:54:34;;;;;;;3.45;1.90;;;;;;;18.60;20.72;101777.91;10277081;28;20227;-71
2021/04/15 12:59:41;;;;;;;2.95;1.75;;;;;;;18.34;21.41;101773.03;10303977;28;20244;-71
2021/04/15 13:04:50;;;;;;;2.22;1.67;;;;;;;16.35;23.26;101769.69;10303054;28;20244;-71
2021/04/15 13:09:54;;;;;;;2.20;2.00;;;;;;;14.81;25.50;101772.97;10309337;28;20264;-70
2021/04/15 13:14:59;;;;;;;2.75;2.03;;;;;;;18.52;22.06;101760.44;10309694;28;20230;-71
2021/04/15 13:20:04;;;;;;;2.83;1.80;;;;;;;20.25;20.45;101740.03;10318304;28;20244;-71
2021/04/15 13:25:16;;;;;;;1.75;1.63;;;;;;;20.33;20.12;101744.78;10264916;28;20242;-70
2021/04/15 13:30:34;;;;;;;3.38;1.60;;;;;;;18.53;21.76;101744.97;10295928;28;20229;-68
2021/04/15 13:35:43;;;;;;;2.15;1.95;;;;;;;16.17;23.60;101730.50;10299059;28;21455;-69
2021/04/15 13:40:51;;;;;;;1.92;1.80;;;;;;;14.18;25.74;101734.47;10299837;28;20237;-68
2021/04/15 13:45:54;;;;;;;2.22;1.65;;;;;;;13.68;26.10;101736.34;10300693;28;20240;-70
2021/04/15 13:51:13;;;;;;;2.17;1.60;;;;;;;13.10;26.10;101729.69;10318634;28;20956;-69
2021/04/15 13:56:39;;;;;;;2.38;1.30;;;;;;;13.72;25.78;101729.75;10302036;28;20233;-68
2021/04/15 14:01:43;;;;;;;2.35;1.60;;;;;;;16.28;22.53;101708.81;10275302;28;20467;-69
2021/04/15 14:06:45;;;;;;;1.58;1.20;;;;;;;15.95;22.51;101718.72;10253956;28;21966;-68
2021/04/15 14:11:55;;;;;;;5.82;1.70;;;;;;;14.18;24.54;101715.53;10302510;28;20236;-71
2021/04/15 14:16:59;;;;;;;2.00;1.60;;;;;;;13.92;25.63;101712.94;10310669;28;20308;-71
2021/04/15 14:22:04;;;;;;;1.50;1.40;;;;;;;13.94;25.99;101710.13;10310930;28;20236;-70
2021/04/15 14:27:14;;;;;;;1.83;1.67;;;;;;;13.62;25.81;101707.09;10317330;28;20242;-70
2021/04/15 14:32:22;;;;;;;2.90;1.83;;;;;;;13.38;27.22;101709.72;10316956;28;20625;-69
2021/04/15 14:37:30;;;;;;;2.38;1.80;;;;;;;13.16;27.42;101707.69;10317148;28;20746;-70
2021/04/15 14:42:37;;;;;;;3.42;1.77;;;;;;;12.57;27.17;101706.38;10318384;28;20225;-70
2021/04/15 14:47:42;;;;;;;1.90;1.65;;;;;;;12.41;27.59;101702.13;10306229;28;20296;-70
2021/04/15 14:52:44;;;;;;;1.83;1.60;;;;;;;12.31;27.62;101705.47;10319888;28;20721;-70
2021/04/15 14:58:03;;;;;;;2.60;2.25;;;;;;;11.52;28.65;101703.47;10317435;28;20268;-71
2021/04/15 15:03:07;;;;;;;3.05;2.00;;;;;;;10.97;30.63;101706.88;10319693;28;20855;-70
2021/04/15 15:08:10;;;;;;;5.03;2.75;;;;;;;11.05;30.64;101694.72;10314733;28;20644;-70
2021/04/15 15:13:16;;;;;;;3.33;2.28;;;;;;;11.39;30.89;101700.69;10310050;28;20740;-71
2021/04/15 15:18:22;;;;;;;2.35;2.10;;;;;;;11.74;30.36;101694.88;10310579;28;20290;-71
2021/04/15 15:23:29;;;;;;;2.75;2.03;;;;;;;12.33;28.28;101681.94;10308853;28;20232;-71
2021/04/15 15:28:31;;;;;;;2.53;2.03;;;;;;;13.12;27.91;101682.75;10277568;28;20284;-70
2021/04/15 15:33:36;;;;;;;2.70;2.10;;;;;;;13.40;28.69;101687.06;10268992;28;20233;-70
2021/04/15 15:38:42;;;;;;;5.20;2.08;;;;;;;12.75;27.85;101681.78;10268537;28;20309;-70
2021/04/15 15:43:58;;;;;;;3.20;2.58;;;;;;;11.82;29.42;101691.63;10273942;28;20250;-70
2021/04/15 15:49:01;;;;;;;3.03;2.13;;;;;;;11.54;30.91;101673.75;10268462;28;20236;-73
2021/04/15 15:54:24;;;;;;;3.28;2.13;;;;;;;11.23;31.25;101678.41;10274160;28;20236;-73
2021/04/15 15:59:28;;;;;;;3.20;2.40;;;;;;;10.67;32.70;101680.94;10273457;28;20245;-71
2021/04/15 16:04:46;;;;;;;2.72;2.50;;;;;;;10.59;33.40;101685.94;10271172;28;20251;-71
2021/04/15 16:10:08;;;;;;;3.03;2.17;;;;;;;10.57;32.59;101677.94;10270242;28;20249;-71
2021/04/15 16:15:36;;;;;;;2.97;2.30;;;;;;;10.79;32.19;101672.13;10274325;28;20240;-71
2021/04/15 16:20:41;;;;;;;3.83;2.50;;;;;;;10.81;32.54;101672.91;10270307;28;20589;-71
2021/04/15 16:25:46;;;;;;;3.38;2.42;;;;;;;11.11;32.08;101665.69;10270286;28;20237;-72
2021/04/15 16:30:49;;;;;;;2.70;2.50;;;;;;;11.28;32.06;101665.53;10269851;28;20293;-71
2021/04/15 16:35:53;;;;;;;3.63;2.38;;;;;;;11.13;31.19;101663.81;10274858;28;20239;-71
2021/04/15 16:40:55;;;;;;;2.90;2.60;;;;;;;10.99;31.56;101657.44;10288770;28;20228;-71
2021/04/15 16:45:58;;;;;;;4.95;2.67;;;;;;;10.80;31.99;101656.84;10284002;28;20229;-71
2021/04/15 16:51:02;;;;;;;4.55;2.35;;;;;;;10.73;31.89;101653.69;10283649;28;20596;-72
2021/04/15 16:56:05;;;;;;;6.15;2.65;;;;;;;10.90;31.66;101649.09;10279598;28;20268;-71
2021/04/15 17:01:07;;;;;;;4.47;2.63;;;;;;;10.79;31.53;101653.31;10285592;28;20234;-72
2021/04/15 17:06:11;;;;;;;5.03;2.30;;;;;;;10.61;31.64;101646.38;10278495;28;20246;-72
2021/04/15 17:11:13;;;;;;;6.78;2.60;;;;;;;10.28;31.45;101642.06;10303778;28;20229;-71
2021/04/15 17:16:15;;;;;;;4.10;2.35;;;;;;;10.26;31.98;101644.00;10303348;28;20250;-71
2021/04/15 17:21:19;;;;;;;5.07;2.60;;;;;;;10.01;32.36;101636.56;10266405;28;20242;-71
2021/04/15 17:26:22;;;;;;;3.35;2.28;;;;;;;9.86;33.15;101637.44;10261542;28;20241;-71
2021/04/15 17:31:25;;;;;;;3.08;2.72;;;;;;;9.55;33.01;101635.63;10264814;28;20237;-69
2021/04/15 17:36:28;;;;;;;4.18;3.22;;;;;;;9.28;33.55;101642.44;10259740;28;20306;-71
2021/04/15 17:41:30;;;;;;;4.95;2.80;;;;;;;9.06;34.00;101642.78;10254641;28;20233;-71
2021/04/15 17:46:35;;;;;;;3.42;2.72;;;;;;;8.91;34.16;101646.28;10249342;28;20249;-71
2021/04/15 17:51:38;;;;;;;3.88;2.55;;;;;;;8.77;34.68;101641.66;10258080;28;20795;-71
2021/04/15 17:56:40;;;;;;;6.85;4.80;;;;;;;8.66;35.73;101641.38;10259777;28;20226;-72
2021/04/15 18:01:43;;;;;;;6.88;5.30;;;;;;;8.51;36.01;101635.03;10271310;28;20222;-71
2021/04/15 18:06:47;;;;;;;5.93;3.72;;;;;;;8.39;36.00;101649.91;10288468;28;20245;-71
2021/04/15 18:11:49;;;;;;;3.80;3.20;;;;;;;8.23;36.47;101648.94;10276585;28;20237;-70
2021/04/15 18:16:51;;;;;;;4.38;3.53;;;;;;;8.09;36.93;101646.97;10281191;28;20246;-71
2021/04/15 18:21:55;;;;;;;4.80;4.18;;;;;;;7.93;37.51;101651.38;10275084;28;20241;-71
2021/04/15 18:26:57;;;;;;;3.45;3.10;;;;;;;7.90;36.99;101651.53;10281265;28;20539;-72
2021/04/15 18:31:59;;;;;;;6.95;3.03;;;;;;;7.88;37.48;101667.63;10299388;28;20230;-71
2021/04/15 18:37:03;;;;;;;5.22;3.47;;;;;;;7.84;37.80;101662.50;10278124;28;20235;-71
2021/04/15 18:42:08;;;;;;;3.67;2.88;;;;;;;7.86;38.21;101664.16;10271782;28;20263;-72
2021/04/15 18:47:10;;;;;;;4.18;3.05;;;;;;;7.89;38.07;101669.34;10266667;28;20433;-72
2021/04/15 18:52:15;;;;;;;4.28;3.22;;;;;;;7.88;38.42;101674.81;10276404;28;20246;-72
2021/04/15 18:57:16;;;;;;;6.45;4.65;;;;;;;7.84;38.76;101674.06;10276339;28;20244;-72
2021/04/15 19:02:19;;;;;;;5.40;3.20;;;;;;;7.75;39.22;101682.56;10275718;28;20720;-72
2021/04/15 19:07:22;;;;;;;70.85;35.53;;;;;;;7.57;39.32;101689.66;10270088;28;20234;-73
2021/04/15 19:12:25;;;;;;;26.15;15.68;;;;;;;7.45;39.17;101684.88;10302230;28;20733;-73
2021/04/15 19:17:27;;;;;;;6.78;3.50;;;;;;;7.33;39.59;101697.03;10311864;28;20716;-72
2021/04/15 19:22:30;;;;;;;6.78;4.03;;;;;;;7.35;39.93;101695.16;10311547;28;20757;-71
2021/04/15 19:27:32;;;;;;;5.30;4.40;;;;;;;7.33;39.94;101697.03;10311140;28;20255;-71
2021/04/15 19:32:34;;;;;;;8.32;5.50;;;;;;;7.22;40.20;101697.53;10311903;28;20253;-71
2021/04/15 19:37:37;;;;;;;5.90;4.07;;;;;;;7.21;40.89;101698.47;10308670;28;20244;-71
2021/04/15 19:42:39;;;;;;;7.00;3.80;;;;;;;7.25;41.18;101693.84;10310972;28;20247;-71
2021/04/15 19:47:42;;;;;;;6.05;3.42;;;;;;;7.27;41.51;101686.63;10287995;28;20239;-71
2021/04/15 19:52:46;;;;;;;4.85;3.25;;;;;;;7.31;41.27;101682.00;10286780;28;20385;-72
2021/04/15 19:57:49;;;;;;;3.70;2.63;;;;;;;7.31;41.70;101696.22;10287524;28;20258;-71
2021/04/15 20:02:52;;;;;;;4.70;2.80;;;;;;;7.27;42.02;101695.50;10289586;28;20230;-71
2021/04/15 20:07:55;;;;;;;3.17;2.85;;;;;;;7.17;41.88;101691.53;10286931;28;20259;-71
2021/04/15 20:12:57;;;;;;;4.25;3.03;;;;;;;6.97;42.61;101697.78;10305357;28;20239;-70
2021/04/15 20:17:59;;;;;;;4.55;3.28;;;;;;;6.83;42.56;101701.03;10311248;28;20240;-71
2021/04/15 20:23:04;;;;;;;4.57;2.42;;;;;;;6.77;42.47;101700.44;10309924;28;20229;-71
2021/04/15 20:28:08;;;;;;;2.92;2.50;;;;;;;6.69;43.09;101692.78;10312026;28;20267;-71
2021/04/15 20:33:12;;;;;;;3.90;2.72;;;;;;;6.64;43.33;101689.44;10303910;28;20260;-72
2021/04/15 20:38:18;;;;;;;3.45;2.90;;;;;;;6.55;44.02;101692.50;10295730;28;20241;-71
2021/04/15 20:43:21;;;;;;;3.88;2.80;;;;;;;6.45;44.62;101689.38;10307516;28;20240;-71
2021/04/15 20:48:24;;;;;;;4.60;2.90;;;;;;;6.41;44.76;101690.41;10307298;28;20245;-71
2021/04/15 20:53:29;;;;;;;3.67;2.83;;;;;;;6.37;44.90;101697.69;10304773;28;20804;-71
2021/04/15 20:58:32;;;;;;;4.30;2.60;;;;;;;6.28;45.33;101691.88;10305283;28;20240;-70
2021/04/15 21:03:34;;;;;;;3.38;2.75;;;;;;;6.11;46.24;101688.09;10305369;28;20238;-71
2021/04/15 21:08:38;;;;;;;4.22;2.72;;;;;;;5.89;47.04;101688.13;10303905;28;20348;-70
2021/04/15 21:13:40;;;;;;;4.63;3.03;;;;;;;5.81;46.97;101689.38;10306249;28;20636;-71
2021/04/15 21:18:45;;;;;;;5.18;3.08;;;;;;;5.66;47.51;101688.19;10305237;28;20633;-70
2021/04/15 21:23:48;;;;;;;4.47;3.45;;;;;;;5.59;47.88;101690.22;10306868;28;20909;-71
2021/04/15 21:28:50;;;;;;;7.90;3.17;;;;;;;5.47;48.48;101685.38;10303096;28;20250;-73
2021/04/15 21:33:52;;;;;;;4.05;3.33;;;;;;;5.38;49.08;101688.41;10307924;28;20247;-73
2021/04/15 21:38:57;;;;;;;5.38;3.20;;;;;;;5.21;49.68;101681.94;10311576;28;21707;-70
2021/04/15 21:44:00;;;;;;;4.82;3.90;;;;;;;5.09;50.75;101686.84;10309975;28;20245;-71
2021/04/15 21:49:04;;;;;;;4.10;3.35;;;;;;;5.02;50.96;101680.91;10310531;28;20237;-72
2021/04/15 21:54:07;;;;;;;5.75;3.92;;;;;;;4.96;51.75;101675.75;10312077;28;20247;-73
2021/04/15 21:59:09;;;;;;;4.38;3.83;;;;;;;5.08;52.02;101678.00;10313891;28;20740;-71
2021/04/15 22:04:11;;;;;;;6.68;3.80;;;;;;;5.15;51.99;101670.63;10313533;28;20730;-71
2021/04/15 22:09:17;;;;;;;6.53;3.67;;;;;;;5.07;52.61;101668.25;10312960;28;20360;-70
2021/04/15 22:14:21;;;;;;;11.20;4.25;;;;;;;5.18;52.67;101666.03;10320340;28;20244;-78
2021/04/15 22:19:25;;;;;;;5.72;3.80;;;;;;;5.20;52.86;101666.84;10317605;28;20268;-71
2021/04/15 22:24:34;;;;;;;5.32;3.58;;;;;;;5.25;52.79;101674.69;10313136;28;20239;-70
2021/04/15 22:29:38;;;;;;;4.90;3.75;;;;;;;5.28;52.81;101663.91;10310045;28;20357;-71
2021/04/15 22:34:40;;;;;;;6.60;3.80;;;;;;;5.23;53.09;101673.88;10311292;28;20802;-74
2021/04/15 22:39:43;;;;;;;7.28;3.90;;;;;;;5.01;54.07;101672.00;10310703;28;20803;-71
2021/04/15 22:44:45;;;;;;;4.35;3.63;;;;;;;5.09;54.22;101671.72;10310635;28;20333;-70
2021/04/15 22:49:47;;;;;;;4.95;3.95;;;;;;;5.05;54.29;101668.31;10311005;28;20754;-70
2021/04/15 22:54:50;;;;;;;5.97;3.92;;;;;;;5.08;54.49;101672.66;10309717;28;20747;-70
2021/04/15 22:59:52;;;;;;;8.25;4.38;;;;;;;5.17;54.43;101666.13;10308655;28;20618;-74
2021/04/15 23:04:54;;;;;;;5.85;3.80;;;;;;;5.16;54.42;101664.41;10307691;28;20251;-71
2021/04/15 23:09:57;;;;;;;8.07;4.47;;;;;;;5.16;54.48;101661.72;10306111;28;20726;-71
2021/04/15 23:14:59;;;;;;;6.75;4.30;;;;;;;5.13;54.54;101654.72;10308942;28;20617;-70
2021/04/15 23:20:01;;;;;;;7.10;4.10;;;;;;;5.19;54.56;101653.63;10310837;28;20232;-70
2021/04/15 23:25:05;;;;;;;6.05;3.85;;;;;;;5.19;54.40;101653.63;10304510;28;21403;-72
2021/04/15 23:30:08;;;;;;;6.63;3.80;;;;;;;5.30;54.25;101656.72;10308563;28;21525;-71
2021/04/15 23:35:12;;;;;;;7.63;4.25;;;;;;;5.27;53.87;101663.03;10304075;28;21938;-70
2021/04/15 23:40:19;;;;;;;9.05;3.92;;;;;;;5.20;54.75;101652.69;10307266;28;20328;-71